Latest Weather Observations for Archerfield

IDQ60901

Issued at 1:41 pm EST Monday 26 September 2016 (issued every 10 minutes, with the page automatically refreshed every 10 minutes)

About weather observations | Map of Brisbane area stations | Latest observations for Brisbane area | Other Formats
Station Details ID: 040211 Name: ARCHERFIELD AIRPORT Lat: -27.57 Lon: 153.01 Height: 12.5 m
Data from the previous 72 hours. | See also: Recent months at Archerfield
Date/Time
EST
Temp
°C
App
Temp
°C
Dew
Point
°C
Rel
Hum
%
Delta-T
°C
Wind Press
QNH
hPa
Press
MSL
hPa
Rain since
9am
mm
Dir  Spd
km/h
Gust
km/h
Spd
kts
Gust
kts
26/01:30pm 26.2 21.8 4.6 25 10.9 WSW 17 26 9 14 1010.1 1010.0 0.0
26/01:00pm 25.6 21.7 5.2 27 10.4 W 15 28 8 15 1010.5 1010.4 0.0
26/12:30pm 25.8 23.2 7.9 32 9.6 WNW 11 19 6 10 1010.9 1010.8 0.0
26/12:00pm 25.5 21.6 7.1 31 9.7 W 17 32 9 17 1011.4 1011.3 0.0
26/11:30am 24.5 21.3 6.7 32 9.2 WNW 13 22 7 12 1012.0 1011.9 0.0
26/11:00am 24.1 21.1 9.3 39 8.0 W 15 24 8 13 1012.5 1012.4 0.0
26/10:30am 23.7 20.9 8.6 38 8.1 W 13 24 7 13 1012.9 1012.8 0.0
26/10:00am 22.9 19.9 9.3 42 7.3 SW 15 19 8 10 1013.2 1013.1 0.0
26/09:30am 22.6 19.2 10.7 47 6.6 WSW 19 28 10 15 1013.5 1013.4 0.0
26/09:00am 21.9 18.8 10.4 48 6.3 WSW 17 24 9 13 1013.6 1013.5 0.0
26/08:30am 20.8 17.1 10.3 51 5.7 WSW 20 26 11 14 1013.5 1013.4 0.0
26/08:00am 19.5 15.9 10.0 54 5.1 WSW 19 24 10 13 1013.5 1013.4 0.0
26/07:30am 18.0 14.8 10.1 60 4.2 WSW 17 20 9 11 1013.4 1013.3 0.0
26/07:00am 16.7 14.4 10.5 67 3.3 WSW 13 19 7 10 1013.2 1013.1 0.0
26/06:30am 15.1 13.1 10.3 73 2.5 SW 11 13 6 7 1012.8 1012.7 0.0
26/06:00am 12.8 10.8 8.7 76 2.1 SSW 9 11 5 6 1012.3 1012.2 0.0
26/05:30am 13.1 10.3 8.4 73 2.3 SW 13 17 7 9 1012.0 1011.9 0.0
26/05:00am 13.5 11.8 8.4 71 2.5 S 7 9 4 5 1011.7 1011.6 0.0
26/04:30am 13.9 13.6 8.5 70 2.7 CALM 0 0 0 0 1011.4 1011.3 0.0
26/04:00am 14.2 12.6 7.9 66 3.1 SW 6 9 3 5 1011.2 1011.1 0.0
26/03:30am 13.2 11.3 7.4 68 2.8 WNW 7 11 4 6 1010.9 1010.8 0.0
26/03:00am 13.7 12.1 7.9 68 2.9 E 6 9 3 5 1010.8 1010.7 0.0
26/02:30am 14.7 12.5 8.0 64 3.3 WSW 9 15 5 8 1010.7 1010.6 0.0
26/02:00am 16.0 12.5 8.7 62 3.7 WSW 17 20 9 11 1010.7 1010.6 0.0
26/01:30am 13.9 11.4 8.3 69 2.8 W 11 15 6 8 1010.8 1010.7 0.0
26/01:00am 13.5 11.5 7.1 65 3.1 WSW 7 9 4 5 1010.9 1010.8 0.0
26/12:30am 16.2 15.8 8.2 59 4.1 CALM 0 0 0 0 1011.1 1011.0 0.0
26/12:00am 15.1 14.3 8.1 63 3.5 SSW 2 7 1 4 1011.2 1011.1 0.0
 
Date/Time
EST
Temp
°C
App
Temp
°C
Dew
Point
°C
Rel
Hum
%
Delta-T
°C
Wind Press
QNH
hPa
Press
MSL
hPa
Rain since
9am
mm
Dir  Spd
km/h
Gust
km/h
Spd
kts
Gust
kts
25/11:30pm 16.6 15.0 8.6 59 4.1 W 7 9 4 5 1011.1 1011.0 0.0
25/11:00pm 17.7 14.8 8.0 53 4.9 WSW 13 15 7 8 1011.2 1011.1 0.0
25/10:30pm 17.5 14.7 8.4 55 4.7 W 13 17 7 9 1010.8 1010.7 0.0
25/10:00pm 17.2 16.6 7.5 53 4.9 CALM 0 7 0 4 1010.8 1010.7 0.0
25/09:30pm 19.6 17.5 8.3 48 5.9 S 9 13 5 7 1010.6 1010.5 0.0
25/09:00pm 19.9 16.6 7.9 46 6.2 WSW 15 19 8 10 1010.3 1010.2 0.0
25/08:30pm 20.4 16.2 8.1 45 6.4 W 20 24 11 13 1009.7 1009.6 0.0
25/08:00pm 21.9 18.0 7.3 39 7.5 WSW 17 22 9 12 1009.7 1009.6 0.0
25/07:30pm 22.8 18.9 7.0 36 8.2 WSW 17 26 9 14 1009.1 1009.0 0.0
25/07:00pm 23.3 16.8 6.6 34 8.6 W 30 43 16 23 1008.2 1008.1 0.0
25/06:30pm 23.9 17.9 7.1 34 8.7 W 28 39 15 21 1007.9 1007.8 0.0
25/06:00pm 24.6 18.4 7.7 34 9.0 WSW 30 39 16 21 1007.4 1007.3 0.0
25/05:30pm 25.3 19.7 8.7 35 9.0 W 28 41 15 22 1006.7 1006.6 0.0
25/05:00pm 26.1 21.3 10.3 37 8.8 WSW 26 41 14 22 1006.2 1006.1 0.0
25/04:30pm 26.4 21.5 11.3 39 8.6 WSW 28 41 15 22 1005.8 1005.7 0.0
25/04:00pm 25.8 21.4 11.6 41 8.1 WSW 26 41 14 22 1005.6 1005.5 0.0
25/03:30pm 26.8 22.5 12.1 40 8.5 WSW 26 39 14 21 1005.3 1005.2 0.0
25/03:00pm 27.3 23.0 13.3 42 8.3 WSW 28 41 15 22 1005.3 1005.2 0.0
25/02:30pm 25.9 22.2 12.7 44 7.7 WSW 24 39 13 21 1005.3 1005.2 0.0
25/02:00pm 25.7 21.1 12.2 43 7.8 SW 28 41 15 22 1005.2 1005.1 0.0
25/01:51pm 26.9 22.3 12.2 40 8.5 WSW 28 46 15 25 1005.3 1005.2 0.0
25/01:30pm 27.1 23.8 12.7 41 8.4 WNW 22 32 12 17 1005.4 1005.3 0.0
25/01:00pm 27.7 22.2 11.7 37 9.2 W 32 44 17 24 1006.0 1005.9 0.0
25/12:30pm 27.2 22.3 11.3 37 9.1 W 28 37 15 20 1006.1 1006.0 0.0
25/12:00pm 26.8 22.0 11.7 39 8.7 W 28 33 15 18 1006.6 1006.5 0.0
25/11:30am 26.1 22.0 11.5 40 8.3 W 24 33 13 18 1007.2 1007.1 0.0
25/11:00am 25.1 22.6 12.3 45 7.4 W 17 28 9 15 1007.7 1007.6 0.0
25/10:30am 23.6 22.3 12.6 50 6.3 WNW 11 20 6 11 1008.2 1008.1 0.0
25/10:00am 21.0 20.6 12.9 60 4.6 WSW 7 11 4 6 1008.9 1008.8 0.0
25/09:30am 18.8 18.4 12.3 66 3.6 WNW 6 9 3 5 1009.1 1009.0 0.0
25/09:00am 17.2 16.7 12.1 72 2.8 WNW 6 7 3 4 1009.5 1009.4 0.0
25/08:30am 16.4 14.9 11.8 74 2.5 SSW 11 17 6 9 1009.7 1009.6 0.0
25/08:00am 15.6 15.1 12.2 80 1.9 WNW 6 9 3 5 1009.7 1009.6 0.0
25/07:30am 15.2 15.3 11.4 78 2.0 W 2 7 1 4 1010.0 1009.9 0.0
25/07:00am 14.7 14.1 11.7 82 1.6 SW 6 9 3 5 1010.2 1010.1 0.0
25/06:30am 14.7 13.9 11.7 82 1.6 SSW 7 11 4 6 1009.9 1009.8 0.0
25/06:00am 14.1 12.9 11.6 85 1.3 SSW 9 13 5 7 1009.7 1009.6 0.0
25/05:30am 12.9 9.7 11.3 90 0.8 SW 19 20 10 11 1009.5 1009.4 0.0
25/05:00am 13.0 12.6 11.2 89 1.0 WSW 4 6 2 3 1009.2 1009.1 0.0
25/04:30am 12.1 12.2 10.3 89 0.9 CALM 0 0 0 0 1009.1 1009.0 0.0
25/04:00am 12.9 13.3 11.1 89 0.9 CALM 0 6 0 3 1008.8 1008.7 0.0
25/03:30am 13.2 13.2 11.3 88 1.0 SW 2 6 1 3 1008.5 1008.4 0.0
25/03:00am 12.8 11.7 10.7 87 1.1 SW 7 9 4 5 1008.6 1008.5 0.0
25/02:30am 13.8 13.5 11.3 85 1.3 S 4 6 2 3 1008.7 1008.6 0.0
25/02:00am 13.3 12.3 11.0 86 1.2 SSW 7 9 4 5 1009.0 1008.9 0.0
25/01:30am 13.5 11.8 11.2 86 1.2 SSW 11 13 6 7 1009.3 1009.2 0.0
25/01:00am 14.1 12.2 11.8 86 1.2 SSW 13 17 7 9 1009.4 1009.3 0.0
25/12:30am 13.8 12.5 11.3 85 1.3 S 9 11 5 6 1009.3 1009.2 0.0
25/12:00am 16.8 16.3 12.1 74 2.6 NE 6 6 3 3 1009.5 1009.4 0.0
 
Date/Time
EST
Temp
°C
App
Temp
°C
Dew
Point
°C
Rel
Hum
%
Delta-T
°C
Wind Press
QNH
hPa
Press
MSL
hPa
Rain since
9am
mm
Dir  Spd
km/h
Gust
km/h
Spd
kts
Gust
kts
24/11:30pm 16.8 16.2 12.3 75 2.5 NE 7 9 4 5 1009.6 1009.5 0.0
24/11:00pm 17.1 16.6 12.2 73 2.7 ENE 6 7 3 4 1009.9 1009.8 0.0
24/10:30pm 17.5 17.1 12.4 72 2.8 ENE 6 7 3 4 1010.2 1010.1 0.0
24/10:00pm 16.2 15.5 12.0 76 2.3 NE 7 9 4 5 1010.4 1010.3 0.0
24/09:30pm 16.9 15.9 12.2 74 2.6 ENE 9 11 5 6 1010.5 1010.4 0.0
24/09:00pm 16.1 14.0 11.3 73 2.6 NE 13 15 7 8 1010.5 1010.4 0.0
24/08:30pm 17.4 15.5 11.9 70 3.0 NE 13 15 7 8 1010.6 1010.5 0.0
24/08:00pm 17.4 16.0 12.1 71 2.9 NE 11 13 6 7 1010.8 1010.7 0.0
24/07:30pm 17.4 16.2 11.7 69 3.1 NE 9 11 5 6 1010.7 1010.6 0.0
24/07:00pm 18.2 16.4 12.0 67 3.4 NE 13 15 7 8 1010.4 1010.3 0.0
24/06:30pm 18.8 16.1 11.6 63 4.0 NNE 17 20 9 11 1010.0 1009.9 0.0
24/06:00pm 19.5 16.4 11.5 60 4.4 NNE 19 22 10 12 1009.5 1009.4 0.0
24/05:30pm 21.1 17.6 10.9 52 5.6 NE 20 26 11 14 1009.0 1008.9 0.0
24/05:00pm 22.5 18.5 11.9 51 6.0 NE 24 28 13 15 1008.3 1008.2 0.0
24/04:30pm 24.7 22.1 10.6 41 7.8 ENE 15 19 8 10 1007.9 1007.8 0.0
24/04:00pm 25.1 22.4 10.2 39 8.3 ENE 15 19 8 10 1007.8 1007.7 0.0
24/03:30pm 24.9 21.2 9.6 38 8.4 ENE 19 24 10 13 1007.8 1007.7 0.0
24/03:00pm 26.8 23.1 7.8 30 10.2 WSW 17 22 9 12 1007.9 1007.8 0.0
24/02:30pm 26.6 22.2 7.6 30 10.1 W 20 32 11 17 1008.1 1008.0 0.0
24/02:00pm 26.0 23.6 8.5 33 9.5 W 11 20 6 11 1008.6 1008.5 0.0
24/01:30pm 25.7 24.8 9.1 35 9.0 NW 4 7 2 4 1008.9 1008.8 0.0
24/01:00pm 25.1 23.2 9.0 36 8.7 NNE 9 13 5 7 1009.4 1009.3 0.0
24/12:30pm 24.5 21.8 8.9 37 8.4 WNW 13 17 7 9 1009.8 1009.7 0.0
24/12:00pm 24.2 22.0 9.4 39 8.1 W 11 19 6 10 1010.5 1010.4 0.0
24/11:30am 23.9 22.9 10.2 42 7.5 WNW 6 13 3 7 1011.0 1010.9 0.0
24/11:00am 23.3 22.2 10.7 45 7.0 SW 7 13 4 7 1011.4 1011.3 0.0
24/10:30am 22.7 21.6 10.8 47 6.6 SSW 7 13 4 7 1012.1 1012.0 0.0
24/10:00am 21.6 19.8 10.7 50 6.0 SSW 11 15 6 8 1012.6 1012.5 0.0
24/09:30am 21.0 18.8 10.8 52 5.6 WSW 13 19 7 10 1012.9 1012.8 0.0
24/09:00am 20.4 17.8 10.8 54 5.2 WSW 15 19 8 10 1013.0 1012.9 0.0
24/08:30am 19.2 16.5 10.2 56 4.8 WSW 15 20 8 11 1013.2 1013.1 0.0
24/08:00am 18.4 15.6 10.0 58 4.5 WSW 15 24 8 13 1013.3 1013.2 0.0
24/07:30am 17.1 15.0 9.8 62 3.8 W 11 15 6 8 1013.1 1013.0 0.0
24/07:00am 15.5 14.2 10.1 70 2.8 WSW 7 11 4 6 1012.8 1012.7 0.0
24/06:30am 13.5 12.1 9.7 78 1.9 SW 7 9 4 5 1012.6 1012.5 0.0
24/06:00am 12.3 10.8 9.1 81 1.6 S 7 9 4 5 1012.4 1012.3 0.0
24/05:30am 11.3 10.1 8.2 81 1.5 SSE 4 7 2 4 1012.0 1011.9 0.0
24/05:00am 12.1 11.5 9.1 82 1.5 S 2 7 1 4 1011.4 1011.3 0.0
24/04:30am 11.1 9.9 8.0 81 1.5 SSW 4 7 2 4 1011.0 1010.9 0.0
24/04:00am 13.4 11.8 8.9 74 2.3 SSW 7 9 4 5 1010.8 1010.7 0.0
24/03:30am 14.0 12.4 8.8 71 2.6 SSW 7 9 4 5 1010.6 1010.5 0.0
24/03:00am 14.4 12.9 9.0 70 2.7 SW 7 9 4 5 1010.5 1010.4 0.0
24/02:30am 14.6 12.3 9.0 69 2.9 WSW 11 13 6 7 1010.9 1010.8 0.0
24/02:00am 15.0 12.3 9.1 68 3.0 WSW 13 17 7 9 1011.0 1010.9 0.0
24/01:30am 15.0 13.1 8.9 67 3.1 SW 9 13 5 7 1011.2 1011.1 0.0
24/01:00am 15.6 13.6 8.8 64 3.5 WSW 9 11 5 6 1011.1 1011.0 0.0
24/12:30am 15.9 14.0 8.9 63 3.6 SW 9 13 5 7 1011.0 1010.9 0.0
24/12:00am 16.1 14.1 8.8 62 3.7 WSW 9 11 5 6 1011.1 1011.0 0.0
 
Date/Time
EST
Temp
°C
App
Temp
°C
Dew
Point
°C
Rel
Hum
%
Delta-T
°C
Wind Press
QNH
hPa
Press
MSL
hPa
Rain since
9am
mm
Dir  Spd
km/h
Gust
km/h
Spd
kts
Gust
kts
23/11:30pm 15.8 14.3 8.5 62 3.7 WSW 6 7 3 4 1011.3 1011.2 0.0
23/11:00pm 16.5 14.2 9.0 61 3.9 WNW 11 17 6 9 1011.4 1011.3 0.0
23/10:30pm 17.0 14.4 9.2 60 4.0 W 13 19 7 10 1011.4 1011.3 0.0
23/10:00pm 16.8 14.9 9.0 60 4.0 W 9 13 5 7 1011.4 1011.3 0.0
23/09:30pm 17.8 15.2 9.4 58 4.4 W 13 17 7 9 1011.5 1011.4 0.0
23/09:00pm 17.9 15.2 9.0 56 4.6 WNW 13 20 7 11 1011.5 1011.4 0.0
23/08:30pm 18.7 14.9 9.2 54 5.0 W 19 22 10 12 1011.3 1011.2 0.0
23/08:00pm 18.8 15.4 9.3 54 5.0 W 17 24 9 13 1011.3 1011.2 0.0
23/07:30pm 19.1 17.3 9.3 53 5.2 W 9 13 5 7 1011.0 1010.9 0.0
23/07:00pm 19.6 17.7 9.2 51 5.5 NW 9 17 5 9 1010.5 1010.4 0.0
23/06:30pm 19.9 16.9 9.2 50 5.7 WNW 15 17 8 9 1010.1 1010.0 0.0
23/06:00pm 20.8 17.3 8.8 46 6.3 WNW 17 24 9 13 1009.7 1009.6 0.0
23/05:30pm 22.2 18.6 8.3 41 7.3 WNW 17 26 9 14 1009.2 1009.1 0.0
23/05:00pm 23.1 18.6 8.4 39 7.8 WNW 22 33 12 18 1008.7 1008.6 0.0
23/04:30pm 23.7 19.6 8.6 38 8.1 W 20 30 11 16 1008.5 1008.4 0.0
23/04:00pm 24.1 19.1 8.1 36 8.5 WNW 24 37 13 20 1008.4 1008.3 0.0
23/03:30pm 24.5 20.1 7.6 34 8.9 W 20 30 11 16 1008.3 1008.2 0.0
23/03:00pm 24.7 19.6 7.8 34 9.0 W 24 37 13 20 1008.3 1008.2 0.0
23/02:30pm 24.8 20.6 8.3 35 8.8 W 20 33 11 18 1008.5 1008.4 0.0
23/02:00pm 24.1 19.2 6.8 33 9.0 W 22 32 12 17 1008.8 1008.7 0.0

Latest Capital City Observations: Canberra | Sydney | Melbourne | Brisbane | Adelaide | Perth | Hobart | Darwin

Other Formats:

Comma delimited format used in spreadsheet applications
http://www.bom.gov.au/fwo/IDQ60901/IDQ60901.94575.axf

JavaScript Object Notation format (JSON) in row-major order
http://www.bom.gov.au/fwo/IDQ60901/IDQ60901.94575.json